createdAt,value
2023-05-23T00:02:12.734Z,24.20
2023-05-23T00:06:14.235Z,24.73
2023-05-23T00:10:15.455Z,27.23
2023-05-23T00:14:17.266Z,30.30
2023-05-23T00:18:18.464Z,31.90
2023-05-23T00:22:19.685Z,34.43
2023-05-23T00:26:21.286Z,33.10
2023-05-23T00:30:22.458Z,34.10
2023-05-23T00:34:23.682Z,30.63
2023-05-23T00:38:26.314Z,29.60
2023-05-23T00:42:28.027Z,23.93
2023-05-23T00:46:31.880Z,26.87
2023-05-23T00:50:33.539Z,31.33
2023-05-23T00:54:36.143Z,34.33
2023-05-23T00:58:38.455Z,35.20
2023-05-23T01:02:44.413Z,34.73
2023-05-23T01:06:46.266Z,32.03
2023-05-23T01:10:48.395Z,33.03
2023-05-23T01:15:08.802Z,30.87
2023-05-23T01:19:30.952Z,32.67
2023-05-23T01:23:55.999Z,32.37
2023-05-23T01:28:03.692Z,32.47
2023-05-23T01:32:08.594Z,36.87
2023-05-23T01:36:13.237Z,36.03
2023-05-23T01:40:14.446Z,38.60
2023-05-23T01:44:15.935Z,47.17
2023-05-23T01:48:18.069Z,40.77
2023-05-23T01:52:20.758Z,41.10
2023-05-23T01:56:22.248Z,46.23
2023-05-23T02:00:23.687Z,40.80
2023-05-23T02:04:24.989Z,42.67
2023-05-23T02:08:26.203Z,41.13
2023-05-23T02:12:27.406Z,43.60
2023-05-23T02:16:28.637Z,49.97
2023-05-23T02:20:29.850Z,43.80
2023-05-23T02:24:31.098Z,42.03
2023-05-23T02:28:32.277Z,40.17
2023-05-23T02:32:33.505Z,39.03
2023-05-23T02:36:36.491Z,40.97
2023-05-23T02:40:37.733Z,39.13
2023-05-23T02:44:38.922Z,36.27
2023-05-23T02:48:40.122Z,37.17
2023-05-23T02:52:44.518Z,39.27
2023-05-23T02:56:46.142Z,41.40
2023-05-23T03:00:47.360Z,38.43
2023-05-23T03:04:48.939Z,39.03
2023-05-23T03:08:50.462Z,36.10
2023-05-23T03:12:51.825Z,36.10
2023-05-23T03:16:53.270Z,39.37
2023-05-23T03:20:54.656Z,37.50
2023-05-23T03:24:56.214Z,38.57
2023-05-23T03:28:57.653Z,39.43
2023-05-23T03:32:59.026Z,38.13
2023-05-23T03:37:00.467Z,38.70
2023-05-23T03:41:01.853Z,36.70
2023-05-23T03:45:03.750Z,34.13
2023-05-23T03:49:05.112Z,35.27
2023-05-23T03:53:06.770Z,36.50
2023-05-23T03:57:08.428Z,30.37
2023-05-23T04:01:10.144Z,31.57
2023-05-23T04:05:12.945Z,28.40
2023-05-23T04:09:14.522Z,28.07
2023-05-23T04:13:15.935Z,22.50
2023-05-23T04:17:18.007Z,25.90
2023-05-23T04:21:19.350Z,27.93
2023-05-23T04:25:20.545Z,25.70
2023-05-23T04:29:22.036Z,26.87
2023-05-23T04:33:23.740Z,26.77
2023-05-23T04:37:25.476Z,28.17
2023-05-23T04:41:27.604Z,27.80
2023-05-23T04:45:28.998Z,26.50
2023-05-23T04:49:32.139Z,25.13
2023-05-23T04:53:34.406Z,24.60
2023-05-23T04:57:35.621Z,25.87
2023-05-23T05:01:38.686Z,23.60
2023-05-23T05:05:40.068Z,24.67
2023-05-23T05:09:41.277Z,27.00
2023-05-23T05:13:42.478Z,24.60
2023-05-23T05:17:45.677Z,25.80
2023-05-23T05:21:47.621Z,28.97
2023-05-23T05:25:48.891Z,25.50
2023-05-23T05:29:50.088Z,27.80
2023-05-23T05:33:51.319Z,24.23
2023-05-23T05:37:52.519Z,26.33
2023-05-23T05:41:55.774Z,27.10
2023-05-23T05:45:57.045Z,25.63
2023-05-23T05:49:58.298Z,26.80
2023-05-23T05:53:59.635Z,26.67
2023-05-23T05:58:00.841Z,28.13
2023-05-23T06:02:02.070Z,26.27
2023-05-23T06:06:03.288Z,27.77
2023-05-23T06:10:05.469Z,26.70
2023-05-23T06:14:07.277Z,27.90
2023-05-23T06:18:09.035Z,26.43
2023-05-23T06:22:10.258Z,26.60
2023-05-23T06:26:11.454Z,22.23
2023-05-23T06:30:13.893Z,22.77
2023-05-23T06:34:16.013Z,21.60
2023-05-23T06:38:17.869Z,17.60
2023-05-23T06:42:19.511Z,17.83
2023-05-23T06:46:20.737Z,16.80
2023-05-23T06:50:22.250Z,15.93
2023-05-23T06:54:23.473Z,13.40
2023-05-23T06:58:24.665Z,12.77
2023-05-23T07:02:25.928Z,12.10
2023-05-23T07:06:27.235Z,16.10
2023-05-23T07:10:28.502Z,10.93
2023-05-23T07:14:29.762Z,11.50
2023-05-23T07:18:31.055Z,12.47
2023-05-23T07:22:32.164Z,11.43
2023-05-23T07:26:33.260Z,9.27
2023-05-23T07:30:34.502Z,9.57
2023-05-23T07:34:35.732Z,9.57
2023-05-23T07:38:36.939Z,9.10
2023-05-23T07:42:38.182Z,7.60
2023-05-23T07:46:39.474Z,7.97
2023-05-23T07:50:41.003Z,9.30
2023-05-23T07:54:42.891Z,9.30
2023-05-23T07:58:44.124Z,9.27
2023-05-23T08:02:45.367Z,9.63
2023-05-23T08:07:03.647Z,10.70
2023-05-23T08:10:49.726Z,10.90
2023-05-23T08:14:52.404Z,11.93
2023-05-23T08:18:53.992Z,10.27
2023-05-23T08:23:00.151Z,10.83
2023-05-23T08:27:01.310Z,11.67
2023-05-23T08:31:02.851Z,10.30
2023-05-23T08:35:05.225Z,9.57
2023-05-23T08:39:06.478Z,12.50
2023-05-23T08:43:09.623Z,8.47
2023-05-23T08:47:13.919Z,11.57
2023-05-23T08:51:17.153Z,10.63
2023-05-23T08:55:18.994Z,7.90
2023-05-23T08:59:21.405Z,7.97
2023-05-23T09:03:25.139Z,7.87
2023-05-23T09:07:28.584Z,8.07
2023-05-23T09:11:33.490Z,7.37
2023-05-23T09:15:35.936Z,7.50
2023-05-23T09:19:40.703Z,12.03
2023-05-23T09:23:42.001Z,7.17
2023-05-23T09:27:45.668Z,6.70
2023-05-23T09:31:47.026Z,7.77
2023-05-23T09:35:48.305Z,5.50
2023-05-23T09:39:50.332Z,5.93
2023-05-23T09:43:53.432Z,6.73
2023-05-23T09:47:54.828Z,6.90
2023-05-23T09:52:00.683Z,5.87
2023-05-23T09:56:03.163Z,7.07
2023-05-23T10:00:06.396Z,6.63
2023-05-23T10:04:08.968Z,6.23
2023-05-23T10:08:29.811Z,8.33
2023-05-23T10:12:37.862Z,7.77
2023-05-23T10:16:55.888Z,6.13
2023-05-23T10:21:00.843Z,6.30
2023-05-23T10:25:04.793Z,6.73
2023-05-23T10:29:06.710Z,6.07
2023-05-23T10:33:09.080Z,5.30
2023-05-23T10:37:14.187Z,7.90
2023-05-23T10:41:25.566Z,7.17
2023-05-23T10:45:26.804Z,4.90
2023-05-23T10:49:42.377Z,7.40
2023-05-23T10:53:45.852Z,7.03
2023-05-23T10:57:51.108Z,7.73
2023-05-23T11:01:52.484Z,5.30
2023-05-23T11:05:53.639Z,5.87
2023-05-23T11:10:13.818Z,6.40
2023-05-23T11:14:15.314Z,6.33
2023-05-23T11:18:21.504Z,4.87
2023-05-23T11:22:29.278Z,12.40
2023-05-23T11:26:31.822Z,5.57
2023-05-23T11:30:36.561Z,7.00
2023-05-23T11:34:38.636Z,5.63
2023-05-23T11:38:39.891Z,7.80
2023-05-23T11:42:42.577Z,7.07
2023-05-23T11:46:48.142Z,6.10
2023-05-23T11:50:51.333Z,6.20
2023-05-23T11:54:54.795Z,5.43
2023-05-23T11:58:57.036Z,5.73
2023-05-23T12:02:58.326Z,6.40
2023-05-23T12:07:01.506Z,5.90
2023-05-23T12:11:02.943Z,6.00
2023-05-23T12:15:04.686Z,5.80
2023-05-23T12:19:06.187Z,5.17
2023-05-23T12:23:07.411Z,7.10
2023-05-23T12:27:09.726Z,5.53
2023-05-23T12:31:13.057Z,5.93
2023-05-23T12:35:15.756Z,6.63
2023-05-23T12:39:20.966Z,5.83
2023-05-23T12:43:22.188Z,5.20
2023-05-23T12:47:23.653Z,5.67
2023-05-23T12:51:25.316Z,5.53
2023-05-23T12:55:26.529Z,7.00
2023-05-23T12:59:27.780Z,4.93
2023-05-23T13:03:33.019Z,4.90
2023-05-23T13:07:34.340Z,4.70
2023-05-23T13:11:35.682Z,5.90
2023-05-23T13:15:37.472Z,4.57
2023-05-23T13:19:38.928Z,7.57
2023-05-23T13:23:40.402Z,4.87
2023-05-23T13:27:41.580Z,3.40
2023-05-23T13:31:42.928Z,4.53
2023-05-23T13:35:44.609Z,5.00
2023-05-23T13:39:48.999Z,5.67
2023-05-23T13:43:50.494Z,4.20
2023-05-23T13:47:51.783Z,6.07
2023-05-23T13:51:53.062Z,4.77
2023-05-23T13:55:54.241Z,4.10
2023-05-23T13:59:55.530Z,5.03
2023-05-23T14:03:56.754Z,8.40
2023-05-23T14:07:58.016Z,5.97
2023-05-23T14:11:59.336Z,4.50
2023-05-23T14:16:00.797Z,4.60
2023-05-23T14:20:03.245Z,4.97
2023-05-23T14:24:05.474Z,8.70
2023-05-23T14:28:06.659Z,7.07
2023-05-23T14:32:07.978Z,5.67
2023-05-23T14:36:09.170Z,6.40
2023-05-23T14:40:10.898Z,8.23
2023-05-23T14:44:12.360Z,6.73
2023-05-23T14:48:13.814Z,6.37
2023-05-23T14:52:17.002Z,6.67
2023-05-23T14:56:18.248Z,6.50
2023-05-23T15:00:19.877Z,7.43
2023-05-23T15:04:21.240Z,7.27
2023-05-23T15:08:22.633Z,6.60
2023-05-23T15:12:23.889Z,7.03
2023-05-23T15:16:25.434Z,11.03
2023-05-23T15:20:26.699Z,8.30
2023-05-23T15:24:28.529Z,8.47
2023-05-23T15:28:29.824Z,7.87
2023-05-23T15:32:31.109Z,10.87
2023-05-23T15:36:32.362Z,10.00
2023-05-23T15:40:33.616Z,11.07
2023-05-23T15:44:34.963Z,7.40
2023-05-23T15:48:36.153Z,8.23
2023-05-23T15:52:37.459Z,10.53
2023-05-23T15:56:39.009Z,7.57
2023-05-23T16:00:40.470Z,7.83
2023-05-23T16:04:41.839Z,6.97
2023-05-23T16:08:43.134Z,7.80
2023-05-23T16:12:44.345Z,7.90
2023-05-23T16:16:45.627Z,6.90
2023-05-23T16:20:46.959Z,6.73
2023-05-23T16:24:48.164Z,6.30
2023-05-23T16:28:50.159Z,5.37
2023-05-23T16:32:51.510Z,6.47
2023-05-23T16:36:52.718Z,5.50
2023-05-23T16:40:54.638Z,5.63
2023-05-23T16:44:56.167Z,5.63
2023-05-23T16:48:57.475Z,7.17
2023-05-23T16:52:58.662Z,7.13
2023-05-23T16:57:01.114Z,7.20
2023-05-23T17:01:02.461Z,7.60
2023-05-23T17:05:03.974Z,5.60
2023-05-23T17:09:05.246Z,6.87
2023-05-23T17:13:06.573Z,8.33
2023-05-23T17:17:07.771Z,7.37
2023-05-23T17:21:08.992Z,6.00
2023-05-23T17:25:10.243Z,13.60
2023-05-23T17:29:11.460Z,5.83
2023-05-23T17:33:12.793Z,6.00
2023-05-23T17:37:15.024Z,6.10
2023-05-23T17:41:16.351Z,6.50
2023-05-23T17:45:17.780Z,5.83
2023-05-23T17:49:19.006Z,6.63
2023-05-23T17:53:20.213Z,6.33
2023-05-23T17:57:22.119Z,8.53
2023-05-23T18:01:24.140Z,7.70
2023-05-23T18:05:26.099Z,8.30
2023-05-23T18:09:27.434Z,6.97
2023-05-23T18:13:28.660Z,10.10
2023-05-23T18:17:29.945Z,6.00
2023-05-23T18:21:33.100Z,7.23
2023-05-23T18:25:34.319Z,6.90
2023-05-23T18:29:35.963Z,9.53
2023-05-23T18:33:37.201Z,6.47
2023-05-23T18:37:39.344Z,5.73
2023-05-23T18:41:40.864Z,6.67
2023-05-23T18:45:42.870Z,6.70
2023-05-23T18:49:44.212Z,7.93
2023-05-23T18:53:45.926Z,10.43
2023-05-23T18:57:47.255Z,8.53
2023-05-23T19:01:48.721Z,6.53
2023-05-23T19:05:50.380Z,8.10
2023-05-23T19:09:51.681Z,7.87
2023-05-23T19:13:53.048Z,11.83
2023-05-23T19:17:54.378Z,10.07
2023-05-23T19:21:55.654Z,10.17
2023-05-23T19:25:57.011Z,10.43
2023-05-23T19:29:58.331Z,10.40
2023-05-23T19:33:59.654Z,11.03
2023-05-23T19:38:01.392Z,7.90
2023-05-23T19:42:03.036Z,12.40
2023-05-23T19:46:04.649Z,7.90
2023-05-23T19:50:08.732Z,8.50
2023-05-23T19:54:10.598Z,9.83
2023-05-23T19:58:12.175Z,17.70
2023-05-23T20:02:13.482Z,14.83
2023-05-23T20:06:14.889Z,9.60
2023-05-23T20:10:16.225Z,8.80
2023-05-23T20:14:17.685Z,8.63
2023-05-23T20:18:19.911Z,9.90
2023-05-23T20:22:21.223Z,9.67
2023-05-23T20:26:23.441Z,10.33
2023-05-23T20:30:24.869Z,8.47
2023-05-23T20:34:26.895Z,8.70
2023-05-23T20:38:28.558Z,6.60
2023-05-23T20:42:31.754Z,8.90
2023-05-23T20:46:34.981Z,8.60
2023-05-23T20:50:37.455Z,9.93
2023-05-23T20:54:38.839Z,9.93
2023-05-23T20:58:42.040Z,8.50
2023-05-23T21:02:43.797Z,8.83
2023-05-23T21:06:45.192Z,7.83
2023-05-23T21:10:49.868Z,8.20
2023-05-23T21:14:49.758Z,12.70
2023-05-23T21:18:51.203Z,11.40
2023-05-23T21:22:52.472Z,15.43
2023-05-23T21:26:53.874Z,12.60
2023-05-23T21:30:55.224Z,10.13
2023-05-23T21:34:56.520Z,11.67
2023-05-23T21:38:57.805Z,14.23
2023-05-23T21:42:59.283Z,8.97
2023-05-23T21:47:00.725Z,11.30
2023-05-23T21:51:02.417Z,9.33
2023-05-23T21:55:04.279Z,11.33
2023-05-23T21:59:05.673Z,12.60
2023-05-23T22:03:07.125Z,9.90
2023-05-23T22:07:08.753Z,11.00
2023-05-23T22:11:12.028Z,12.30
2023-05-23T22:15:13.491Z,11.07
2023-05-23T22:19:17.433Z,15.30
2023-05-23T22:23:19.186Z,12.10
2023-05-23T22:27:20.699Z,11.13
2023-05-23T22:31:23.204Z,10.43
2023-05-23T22:35:24.565Z,13.87
2023-05-23T22:39:26.188Z,8.27
2023-05-23T22:43:28.571Z,8.87
2023-05-23T22:47:31.747Z,13.73
2023-05-23T22:51:33.451Z,13.37
2023-05-23T22:55:35.067Z,14.83
2023-05-23T22:59:36.449Z,14.53
2023-05-23T23:03:37.821Z,9.37
2023-05-23T23:07:39.285Z,10.03
2023-05-23T23:11:40.633Z,8.97
2023-05-23T23:15:42.354Z,13.10
2023-05-23T23:19:43.688Z,15.90
2023-05-23T23:23:45.036Z,14.60
2023-05-23T23:27:46.427Z,11.73
2023-05-23T23:31:48.159Z,9.70
2023-05-23T23:35:51.256Z,10.80
2023-05-23T23:39:52.627Z,12.90
2023-05-23T23:43:54.021Z,12.60
2023-05-23T23:47:55.514Z,14.10
2023-05-23T23:51:56.964Z,12.40
2023-05-23T23:55:58.441Z,9.37
